ANZ109 NZAA-YSSY
Flight info
| Callsign | ANZ109 |
|---|---|
| Flight time | 3h 17m |
| Altitude | 36000 |
| Route | VELMO DCT 38S163E DCT PLUGA DCT RIKNI N774 MARLN |
| Aircraft | A21N/M-SDE2E3FGHIRWXY/LB1 |
Departure
| Time | 2026-05-07 20:13 |
|---|---|
| Airport | Auckland International Airport (NZAA) |
Arrival
| Time | 2026-05-07 23:31 |
|---|---|
| Airport | Sydney Kingsford Smith International Airport (YSSY) |
| Time | Latitude | Longitude | Altitude | Speed | Heading |
|---|---|---|---|---|---|
| 2026-05-07 19:40 | -37.00760 | 174.78972 | 33 ft | 0 kts | 356° |
| 2026-05-07 20:05 | -37.00770 | 174.78973 | 33 ft | 2 kts | 355° |
| 2026-05-07 20:06 | -37.00784 | 174.78975 | 32 ft | 2 kts | 355° |
| 2026-05-07 20:06 | -37.00797 | 174.78975 | 32 ft | 1 kts | 356° |
| 2026-05-07 20:06 | -37.00807 | 174.78976 | 32 ft | 3 kts | 334° |
| 2026-05-07 20:06 | -37.00819 | 174.78993 | 32 ft | 2 kts | 281° |
| 2026-05-07 20:07 | -37.00818 | 174.79009 | 32 ft | 1 kts | 248° |
| 2026-05-07 20:07 | -37.00816 | 174.79015 | 32 ft | 0 kts | 250° |
| 2026-05-07 20:09 | -37.00825 | 174.78983 | 32 ft | 14 kts | 251° |
| 2026-05-07 20:09 | -37.00858 | 174.78863 | 29 ft | 17 kts | 252° |
| 2026-05-07 20:09 | -37.00894 | 174.78728 | 27 ft | 18 kts | 251° |
| 2026-05-07 20:10 | -37.00973 | 174.78444 | 26 ft | 19 kts | 244° |
| 2026-05-07 20:10 | -37.01075 | 174.78349 | 25 ft | 20 kts | 221° |
| 2026-05-07 20:10 | -37.01128 | 174.78203 | 25 ft | 21 kts | 252° |
| 2026-05-07 20:10 | -37.01175 | 174.78029 | 25 ft | 26 kts | 250° |
| 2026-05-07 20:11 | -37.01230 | 174.77835 | 25 ft | 25 kts | 250° |
| 2026-05-07 20:11 | -37.01284 | 174.77646 | 25 ft | 25 kts | 249° |
| 2026-05-07 20:11 | -37.01337 | 174.77447 | 24 ft | 26 kts | 251° |
| 2026-05-07 20:11 | -37.01395 | 174.77246 | 22 ft | 26 kts | 249° |
| 2026-05-07 20:12 | -37.01471 | 174.77110 | 22 ft | 19 kts | 202° |
| 2026-05-07 20:12 | -37.01590 | 174.77097 | 22 ft | 16 kts | 148° |
| 2026-05-07 20:12 | -37.01591 | 174.77214 | 22 ft | 16 kts | 71° |
| 2026-05-07 20:12 | -37.01511 | 174.77478 | 25 ft | 72 kts | 72° |
| 2026-05-07 20:13 | -37.01292 | 174.78293 | 26 ft | 143 kts | 71° |
| 2026-05-07 20:13 | -37.00966 | 174.79498 | 376 ft | 172 kts | 69° |
| 2026-05-07 20:13 | -37.00662 | 174.80782 | 1099 ft | 181 kts | 67° |
| 2026-05-07 20:13 | -37.00299 | 174.82204 | 1585 ft | 206 kts | 65° |
| 2026-05-07 20:14 | -36.99841 | 174.83754 | 2204 ft | 217 kts | 63° |
| 2026-05-07 20:14 | -36.99356 | 174.85379 | 3205 ft | 215 kts | 63° |
| 2026-05-07 20:14 | -36.98900 | 174.86938 | 4295 ft | 212 kts | 63° |
| 2026-05-07 20:14 | -36.98447 | 174.88509 | 5219 ft | 217 kts | 66° |
| 2026-05-07 20:15 | -36.98280 | 174.90237 | 6064 ft | 233 kts | 94° |
| 2026-05-07 20:15 | -36.98877 | 174.91948 | 6899 ft | 248 kts | 126° |
| 2026-05-07 20:15 | -37.00152 | 174.93121 | 7712 ft | 258 kts | 157° |
| 2026-05-07 20:15 | -37.01706 | 174.93742 | 8520 ft | 263 kts | 168° |
| 2026-05-07 20:16 | -37.03371 | 174.93744 | 9274 ft | 265 kts | 200° |
| 2026-05-07 20:16 | -37.04793 | 174.92714 | 10073 ft | 257 kts | 232° |
| 2026-05-07 20:16 | -37.05639 | 174.90891 | 10902 ft | 248 kts | 258° |
| 2026-05-07 20:16 | -37.06122 | 174.88826 | 11609 ft | 257 kts | 260° |
| 2026-05-07 20:17 | -37.06644 | 174.86598 | 12141 ft | 275 kts | 258° |
| 2026-05-07 20:17 | -37.07230 | 174.84276 | 12646 ft | 293 kts | 257° |
| 2026-05-07 20:17 | -37.07895 | 174.81779 | 13136 ft | 312 kts | 256° |
| 2026-05-07 20:17 | -37.08619 | 174.79129 | 13603 ft | 330 kts | 256° |
| 2026-05-07 20:18 | -37.09386 | 174.76352 | 14076 ft | 347 kts | 255° |
| 2026-05-07 20:18 | -37.10269 | 174.73476 | 14815 ft | 356 kts | 252° |
| 2026-05-07 20:18 | -37.11305 | 174.70665 | 15694 ft | 360 kts | 248° |
| 2026-05-07 20:18 | -37.12478 | 174.67889 | 16550 ft | 363 kts | 246° |
| 2026-05-07 20:19 | -37.13674 | 174.65122 | 17379 ft | 365 kts | 246° |
| 2026-05-07 20:19 | -37.14886 | 174.62324 | 18170 ft | 368 kts | 246° |
| 2026-05-07 20:19 | -37.16098 | 174.59521 | 18924 ft | 371 kts | 246° |
| 2026-05-07 20:19 | -37.17327 | 174.56673 | 19660 ft | 374 kts | 246° |
| 2026-05-07 20:20 | -37.18559 | 174.53807 | 20369 ft | 377 kts | 246° |
| 2026-05-07 20:20 | -37.19793 | 174.50937 | 21076 ft | 380 kts | 246° |
| 2026-05-07 20:20 | -37.21057 | 174.47987 | 21770 ft | 382 kts | 246° |
| 2026-05-07 20:20 | -37.22309 | 174.45068 | 22417 ft | 386 kts | 246° |
| 2026-05-07 20:21 | -37.23578 | 174.42104 | 23036 ft | 389 kts | 246° |
| 2026-05-07 20:21 | -37.24864 | 174.39094 | 23667 ft | 392 kts | 246° |
| 2026-05-07 20:21 | -37.26134 | 174.36125 | 24317 ft | 393 kts | 246° |
| 2026-05-07 20:21 | -37.27425 | 174.33105 | 24959 ft | 395 kts | 247° |
| 2026-05-07 20:22 | -37.28721 | 174.30069 | 25558 ft | 397 kts | 247° |
| 2026-05-07 20:22 | -37.30029 | 174.26994 | 26172 ft | 398 kts | 248° |
| 2026-05-07 20:22 | -37.31318 | 174.23970 | 26750 ft | 399 kts | 248° |
| 2026-05-07 20:22 | -37.32550 | 174.20865 | 27286 ft | 399 kts | 250° |
| 2026-05-07 20:23 | -37.33653 | 174.17647 | 27836 ft | 398 kts | 253° |
| 2026-05-07 20:23 | -37.34657 | 174.14410 | 28332 ft | 400 kts | 254° |
| 2026-05-07 20:23 | -37.35642 | 174.11180 | 28811 ft | 401 kts | 254° |
| 2026-05-07 20:23 | -37.36639 | 174.07899 | 29277 ft | 403 kts | 255° |
| 2026-05-07 20:24 | -37.37637 | 174.04619 | 29754 ft | 404 kts | 254° |
| 2026-05-07 20:24 | -37.38641 | 174.01315 | 30198 ft | 406 kts | 255° |
| 2026-05-07 20:24 | -37.39643 | 173.98006 | 30624 ft | 407 kts | 254° |
| 2026-05-07 20:24 | -37.40649 | 173.94688 | 31072 ft | 408 kts | 254° |
| 2026-05-07 20:25 | -37.41651 | 173.91382 | 31652 ft | 405 kts | 254° |
| 2026-05-07 20:25 | -37.42636 | 173.88138 | 32291 ft | 400 kts | 254° |
| 2026-05-07 20:25 | -37.43617 | 173.84901 | 32890 ft | 395 kts | 255° |
| 2026-05-07 20:25 | -37.44595 | 173.81662 | 33474 ft | 391 kts | 255° |
| 2026-05-07 20:26 | -37.45543 | 173.78529 | 34018 ft | 387 kts | 255° |
| 2026-05-07 20:26 | -37.46496 | 173.75357 | 34412 ft | 385 kts | 255° |
| 2026-05-07 20:26 | -37.47440 | 173.72214 | 34695 ft | 385 kts | 254° |
| 2026-05-07 20:26 | -37.48388 | 173.69052 | 34876 ft | 389 kts | 255° |
| 2026-05-07 20:27 | -37.49337 | 173.65886 | 35066 ft | 391 kts | 255° |
| 2026-05-07 20:27 | -37.50293 | 173.62698 | 35278 ft | 393 kts | 255° |
| 2026-05-07 20:27 | -37.51262 | 173.59459 | 35464 ft | 395 kts | 255° |
| 2026-05-07 20:27 | -37.52229 | 173.56226 | 35669 ft | 396 kts | 254° |
| 2026-05-07 20:28 | -37.53192 | 173.52998 | 35869 ft | 398 kts | 255° |
| 2026-05-07 20:28 | -37.55145 | 173.46451 | 35927 ft | 400 kts | 254° |
| 2026-05-07 20:29 | -37.57093 | 173.39912 | 35928 ft | 400 kts | 255° |
| 2026-05-07 20:29 | -37.59033 | 173.33377 | 35922 ft | 399 kts | 255° |
| 2026-05-07 20:30 | -37.60963 | 173.26859 | 35926 ft | 400 kts | 255° |
| 2026-05-07 20:30 | -37.62897 | 173.20317 | 35917 ft | 400 kts | 255° |
| 2026-05-07 20:31 | -37.64823 | 173.13776 | 35918 ft | 400 kts | 255° |
| 2026-05-07 20:31 | -37.66756 | 173.07196 | 35916 ft | 400 kts | 255° |
| 2026-05-07 20:32 | -37.68681 | 173.00638 | 35908 ft | 400 kts | 255° |
| 2026-05-07 20:32 | -37.70611 | 172.94041 | 35898 ft | 400 kts | 256° |
| 2026-05-07 20:33 | -37.72513 | 172.87526 | 35895 ft | 398 kts | 256° |
| 2026-05-07 20:33 | -37.74427 | 172.80954 | 35885 ft | 398 kts | 256° |
| 2026-05-07 20:34 | -37.76332 | 172.74397 | 35883 ft | 398 kts | 256° |
| 2026-05-07 20:34 | -37.78222 | 172.67874 | 35879 ft | 397 kts | 256° |
| 2026-05-07 20:35 | -37.80114 | 172.61325 | 35881 ft | 398 kts | 256° |
| 2026-05-07 20:35 | -37.81996 | 172.54800 | 35878 ft | 397 kts | 257° |
| 2026-05-07 20:36 | -37.83875 | 172.48263 | 35873 ft | 396 kts | 256° |
| 2026-05-07 20:36 | -37.85754 | 172.41713 | 35878 ft | 396 kts | 256° |
| 2026-05-07 20:37 | -37.87613 | 172.35226 | 35872 ft | 396 kts | 257° |
| 2026-05-07 20:37 | -37.89473 | 172.28708 | 35862 ft | 394 kts | 258° |
| 2026-05-07 20:38 | -37.91332 | 172.22179 | 35846 ft | 394 kts | 258° |
| 2026-05-07 20:38 | -37.93177 | 172.15688 | 35845 ft | 394 kts | 258° |
| 2026-05-07 20:39 | -37.95018 | 172.09198 | 35849 ft | 393 kts | 258° |
| 2026-05-07 20:39 | -37.96848 | 172.02728 | 35840 ft | 392 kts | 258° |
| 2026-05-07 20:40 | -37.98686 | 171.96202 | 35839 ft | 393 kts | 258° |
| 2026-05-07 20:40 | -38.00509 | 171.89731 | 35829 ft | 394 kts | 258° |
| 2026-05-07 20:41 | -38.02344 | 171.83195 | 35824 ft | 395 kts | 258° |
| 2026-05-07 20:41 | -38.04174 | 171.76643 | 35825 ft | 395 kts | 258° |
| 2026-05-07 20:42 | -38.05996 | 171.70120 | 35820 ft | 394 kts | 258° |
| 2026-05-07 20:42 | -38.07824 | 171.63559 | 35817 ft | 396 kts | 259° |
| 2026-05-07 20:43 | -38.09660 | 171.56952 | 35811 ft | 397 kts | 258° |
| 2026-05-07 20:43 | -38.11484 | 171.50368 | 35804 ft | 400 kts | 259° |
| 2026-05-07 20:44 | -38.13312 | 171.43750 | 35802 ft | 400 kts | 259° |
| 2026-05-07 20:44 | -38.15147 | 171.37097 | 35792 ft | 400 kts | 259° |
| 2026-05-07 20:45 | -38.16974 | 171.30450 | 35789 ft | 401 kts | 259° |
| 2026-05-07 20:45 | -38.18817 | 171.23740 | 35793 ft | 402 kts | 260° |
| 2026-05-07 20:46 | -38.20639 | 171.17068 | 35782 ft | 404 kts | 260° |
| 2026-05-07 20:46 | -38.22470 | 171.10341 | 35783 ft | 404 kts | 260° |
| 2026-05-07 20:47 | -38.24303 | 171.03593 | 35771 ft | 405 kts | 261° |
| 2026-05-07 20:47 | -38.25791 | 170.96751 | 35763 ft | 399 kts | 266° |
| 2026-05-07 20:48 | -38.26715 | 170.89883 | 35761 ft | 393 kts | 271° |
| 2026-05-07 20:48 | -38.27108 | 170.82971 | 35751 ft | 391 kts | 276° |
| 2026-05-07 20:49 | -38.27117 | 170.76131 | 35748 ft | 387 kts | 277° |
| 2026-05-07 20:49 | -38.27105 | 170.69247 | 35749 ft | 390 kts | 277° |
| 2026-05-07 20:50 | -38.27087 | 170.62410 | 35748 ft | 390 kts | 277° |
| 2026-05-07 20:50 | -38.27063 | 170.55501 | 35744 ft | 389 kts | 278° |
| 2026-05-07 20:51 | -38.27037 | 170.48634 | 35729 ft | 390 kts | 278° |
| 2026-05-07 20:51 | -38.27005 | 170.41785 | 35721 ft | 390 kts | 278° |
| 2026-05-07 20:52 | -38.26970 | 170.34917 | 35713 ft | 391 kts | 279° |
| 2026-05-07 20:52 | -38.26929 | 170.28044 | 35711 ft | 390 kts | 278° |
| 2026-05-07 20:53 | -38.26886 | 170.21132 | 35705 ft | 390 kts | 278° |
| 2026-05-07 20:53 | -38.26839 | 170.14249 | 35697 ft | 390 kts | 279° |
| 2026-05-07 20:54 | -38.26786 | 170.07394 | 35691 ft | 389 kts | 278° |
| 2026-05-07 20:54 | -38.26733 | 170.00520 | 35689 ft | 391 kts | 279° |
| 2026-05-07 20:55 | -38.26672 | 169.93605 | 35685 ft | 391 kts | 279° |
| 2026-05-07 20:55 | -38.26610 | 169.86732 | 35678 ft | 391 kts | 278° |
| 2026-05-07 20:56 | -38.26541 | 169.79817 | 35679 ft | 393 kts | 279° |
| 2026-05-07 20:56 | -38.26468 | 169.72919 | 35680 ft | 393 kts | 279° |
| 2026-05-07 20:57 | -38.26394 | 169.65985 | 35678 ft | 394 kts | 279° |
| 2026-05-07 20:57 | -38.26308 | 169.59015 | 35673 ft | 394 kts | 279° |
| 2026-05-07 20:58 | -38.26228 | 169.52084 | 35661 ft | 394 kts | 279° |
| 2026-05-07 20:58 | -38.26142 | 169.45213 | 35660 ft | 396 kts | 279° |
| 2026-05-07 20:59 | -38.26048 | 169.38428 | 35650 ft | 396 kts | 279° |
| 2026-05-07 21:00 | -38.25856 | 169.24760 | 35646 ft | 395 kts | 280° |
| 2026-05-07 21:00 | -38.25753 | 169.17831 | 35648 ft | 397 kts | 279° |
| 2026-05-07 21:00 | -38.25697 | 169.14302 | 35780 ft | 399 kts | 279° |
| 2026-05-07 21:01 | -38.25642 | 169.10823 | 36098 ft | 398 kts | 279° |
| 2026-05-07 21:01 | -38.25587 | 169.07321 | 36502 ft | 395 kts | 279° |
| 2026-05-07 21:01 | -38.25531 | 169.03832 | 36825 ft | 394 kts | 280° |
| 2026-05-07 21:01 | -38.25472 | 169.00362 | 37154 ft | 393 kts | 279° |
| 2026-05-07 21:02 | -38.25413 | 168.96947 | 37466 ft | 390 kts | 279° |
| 2026-05-07 21:02 | -38.25355 | 168.93498 | 37715 ft | 390 kts | 279° |
| 2026-05-07 21:02 | -38.25295 | 168.90079 | 37720 ft | 390 kts | 279° |
| 2026-05-07 21:03 | -38.25173 | 168.83217 | 37716 ft | 389 kts | 279° |
| 2026-05-07 21:03 | -38.25044 | 168.76321 | 37713 ft | 389 kts | 279° |
| 2026-05-07 21:04 | -38.24913 | 168.69482 | 37712 ft | 390 kts | 279° |
| 2026-05-07 21:04 | -38.24778 | 168.62633 | 37706 ft | 389 kts | 279° |
| 2026-05-07 21:05 | -38.24637 | 168.55788 | 37705 ft | 389 kts | 279° |
| 2026-05-07 21:05 | -38.24496 | 168.48901 | 37699 ft | 390 kts | 279° |
| 2026-05-07 21:06 | -38.24346 | 168.42044 | 37691 ft | 391 kts | 279° |
| 2026-05-07 21:06 | -38.24194 | 168.35187 | 37689 ft | 390 kts | 279° |
| 2026-05-07 21:07 | -38.24041 | 168.28331 | 37677 ft | 390 kts | 280° |
| 2026-05-07 21:07 | -38.23879 | 168.21440 | 37669 ft | 390 kts | 280° |
| 2026-05-07 21:08 | -38.23714 | 168.14549 | 37658 ft | 392 kts | 280° |
| 2026-05-07 21:08 | -38.23547 | 168.07642 | 37655 ft | 392 kts | 280° |
| 2026-05-07 21:09 | -38.23374 | 168.00743 | 37651 ft | 391 kts | 280° |
| 2026-05-07 21:09 | -38.23198 | 167.93863 | 37649 ft | 392 kts | 281° |
| 2026-05-07 21:10 | -38.23016 | 167.86978 | 37641 ft | 392 kts | 280° |
| 2026-05-07 21:10 | -38.22831 | 167.80083 | 37638 ft | 393 kts | 280° |
| 2026-05-07 21:11 | -38.22641 | 167.73186 | 37637 ft | 392 kts | 280° |
| 2026-05-07 21:11 | -38.22351 | 167.62799 | 37622 ft | 393 kts | 280° |
| 2026-05-07 21:12 | -38.22151 | 167.55902 | 37617 ft | 394 kts | 280° |
| 2026-05-07 21:12 | -38.21948 | 167.48952 | 37608 ft | 395 kts | 280° |
| 2026-05-07 21:13 | -38.21738 | 167.42001 | 37598 ft | 394 kts | 279° |
| 2026-05-07 21:13 | -38.21529 | 167.35078 | 37597 ft | 394 kts | 280° |
| 2026-05-07 21:14 | -38.21313 | 167.28116 | 37597 ft | 395 kts | 281° |
| 2026-05-07 21:14 | -38.21091 | 167.21205 | 37591 ft | 395 kts | 281° |
| 2026-05-07 21:15 | -38.20866 | 167.14214 | 37575 ft | 397 kts | 281° |
| 2026-05-07 21:15 | -38.20637 | 167.07245 | 37575 ft | 397 kts | 280° |
| 2026-05-07 21:16 | -38.20402 | 167.00261 | 37566 ft | 396 kts | 280° |
| 2026-05-07 21:16 | -38.20169 | 166.93314 | 37563 ft | 397 kts | 281° |
| 2026-05-07 21:17 | -38.19925 | 166.86320 | 37554 ft | 399 kts | 281° |
| 2026-05-07 21:17 | -38.19675 | 166.79271 | 37561 ft | 399 kts | 281° |
| 2026-05-07 21:18 | -38.19424 | 166.72276 | 37548 ft | 400 kts | 281° |
| 2026-05-07 21:18 | -38.19163 | 166.65196 | 37544 ft | 403 kts | 281° |
| 2026-05-07 21:19 | -38.18898 | 166.58125 | 37538 ft | 403 kts | 280° |
| 2026-05-07 21:19 | -38.18633 | 166.51028 | 37532 ft | 403 kts | 281° |
| 2026-05-07 21:20 | -38.18362 | 166.43896 | 37518 ft | 404 kts | 281° |
| 2026-05-07 21:20 | -38.18086 | 166.36827 | 37508 ft | 402 kts | 281° |
| 2026-05-07 21:21 | -38.17805 | 166.29758 | 37511 ft | 405 kts | 282° |
| 2026-05-07 21:21 | -38.17513 | 166.22600 | 37523 ft | 404 kts | 281° |
| 2026-05-07 21:22 | -38.17226 | 166.15469 | 37521 ft | 407 kts | 282° |
| 2026-05-07 21:22 | -38.16932 | 166.08336 | 37517 ft | 407 kts | 282° |
| 2026-05-07 21:23 | -38.16629 | 166.01172 | 37510 ft | 410 kts | 282° |
| 2026-05-07 21:23 | -38.16319 | 165.93947 | 37506 ft | 410 kts | 282° |
| 2026-05-07 21:24 | -38.16008 | 165.86743 | 37510 ft | 411 kts | 282° |
| 2026-05-07 21:24 | -38.15688 | 165.79503 | 37519 ft | 411 kts | 281° |
| 2026-05-07 21:25 | -38.15372 | 165.72311 | 37491 ft | 412 kts | 282° |
| 2026-05-07 21:25 | -38.15042 | 165.65077 | 37507 ft | 411 kts | 281° |
| 2026-05-07 21:26 | -38.14713 | 165.57837 | 37501 ft | 412 kts | 281° |
| 2026-05-07 21:26 | -38.14380 | 165.50612 | 37497 ft | 413 kts | 281° |
| 2026-05-07 21:27 | -38.14041 | 165.43391 | 37512 ft | 411 kts | 281° |
| 2026-05-07 21:27 | -38.13696 | 165.36136 | 37504 ft | 413 kts | 281° |
| 2026-05-07 21:28 | -38.13348 | 165.28909 | 37507 ft | 413 kts | 282° |
| 2026-05-07 21:28 | -38.12992 | 165.21635 | 37500 ft | 414 kts | 281° |
| 2026-05-07 21:29 | -38.12633 | 165.14401 | 37523 ft | 413 kts | 281° |
| 2026-05-07 21:29 | -38.12272 | 165.07141 | 37512 ft | 413 kts | 281° |
| 2026-05-07 21:30 | -38.11905 | 164.99890 | 37544 ft | 412 kts | 281° |
| 2026-05-07 21:30 | -38.11533 | 164.92645 | 37554 ft | 412 kts | 281° |
| 2026-05-07 21:31 | -38.11163 | 164.85461 | 37540 ft | 412 kts | 281° |
| 2026-05-07 21:31 | -38.10780 | 164.78198 | 37520 ft | 412 kts | 281° |
| 2026-05-07 21:32 | -38.10395 | 164.70973 | 37525 ft | 413 kts | 281° |
| 2026-05-07 21:32 | -38.10006 | 164.63718 | 37511 ft | 412 kts | 281° |
| 2026-05-07 21:33 | -38.09612 | 164.56467 | 37506 ft | 414 kts | 281° |
| 2026-05-07 21:33 | -38.09213 | 164.49205 | 37513 ft | 412 kts | 280° |
| 2026-05-07 21:34 | -38.08813 | 164.42015 | 37511 ft | 411 kts | 280° |
| 2026-05-07 21:34 | -38.08410 | 164.34808 | 37511 ft | 413 kts | 281° |
| 2026-05-07 21:35 | -38.07995 | 164.27560 | 37494 ft | 412 kts | 281° |
| 2026-05-07 21:35 | -38.07582 | 164.20334 | 37490 ft | 414 kts | 281° |
| 2026-05-07 21:36 | -38.07158 | 164.13066 | 37499 ft | 412 kts | 281° |
| 2026-05-07 21:36 | -38.06733 | 164.05818 | 37532 ft | 413 kts | 281° |
| 2026-05-07 21:37 | -38.06302 | 163.98587 | 37509 ft | 414 kts | 280° |
| 2026-05-07 21:37 | -38.05867 | 163.91351 | 37515 ft | 412 kts | 281° |
| 2026-05-07 21:38 | -38.05430 | 163.84146 | 37508 ft | 413 kts | 280° |
| 2026-05-07 21:38 | -38.04989 | 163.76910 | 37507 ft | 412 kts | 281° |
| 2026-05-07 21:39 | -38.04539 | 163.69669 | 37509 ft | 414 kts | 280° |
| 2026-05-07 21:39 | -38.04091 | 163.62444 | 37501 ft | 414 kts | 280° |
| 2026-05-07 21:40 | -38.03630 | 163.55153 | 37468 ft | 414 kts | 280° |
| 2026-05-07 21:40 | -38.03170 | 163.47931 | 37481 ft | 412 kts | 279° |
| 2026-05-07 21:41 | -38.02706 | 163.40710 | 37495 ft | 414 kts | 280° |
| 2026-05-07 21:41 | -38.02236 | 163.33473 | 37498 ft | 412 kts | 280° |
| 2026-05-07 21:42 | -38.01764 | 163.26280 | 37500 ft | 412 kts | 280° |
| 2026-05-07 21:42 | -38.01285 | 163.19069 | 37491 ft | 413 kts | 280° |
| 2026-05-07 21:43 | -38.00802 | 163.11818 | 37498 ft | 412 kts | 280° |
| 2026-05-07 21:43 | -38.00261 | 163.04658 | 37498 ft | 411 kts | 283° |
| 2026-05-07 21:44 | -37.99244 | 162.97562 | 37493 ft | 409 kts | 288° |
| 2026-05-07 21:44 | -37.97694 | 162.90649 | 37473 ft | 408 kts | 291° |
| 2026-05-07 21:45 | -37.96017 | 162.83807 | 37469 ft | 407 kts | 291° |
| 2026-05-07 21:45 | -37.94340 | 162.77006 | 37484 ft | 408 kts | 291° |
| 2026-05-07 21:46 | -37.92655 | 162.70195 | 37483 ft | 407 kts | 290° |
| 2026-05-07 21:46 | -37.90972 | 162.63402 | 37485 ft | 406 kts | 291° |
| 2026-05-07 21:47 | -37.89277 | 162.56587 | 37482 ft | 407 kts | 290° |
| 2026-05-07 21:47 | -37.87583 | 162.49795 | 37487 ft | 407 kts | 290° |
| 2026-05-07 21:48 | -37.85877 | 162.42973 | 37487 ft | 406 kts | 290° |
| 2026-05-07 21:48 | -37.84180 | 162.36200 | 37483 ft | 406 kts | 290° |
| 2026-05-07 21:49 | -37.82475 | 162.29431 | 37488 ft | 405 kts | 290° |
| 2026-05-07 21:49 | -37.80768 | 162.22658 | 37491 ft | 405 kts | 291° |
| 2026-05-07 21:50 | -37.79064 | 162.15913 | 37490 ft | 405 kts | 290° |
| 2026-05-07 21:50 | -37.77350 | 162.09152 | 37502 ft | 405 kts | 290° |
| 2026-05-07 21:51 | -37.75634 | 162.02403 | 37500 ft | 404 kts | 290° |
| 2026-05-07 21:51 | -37.73920 | 161.95686 | 37506 ft | 404 kts | 290° |
| 2026-05-07 21:52 | -37.72203 | 161.88968 | 37516 ft | 403 kts | 290° |
| 2026-05-07 21:52 | -37.70480 | 161.82237 | 37520 ft | 403 kts | 290° |
| 2026-05-07 21:53 | -37.68752 | 161.75510 | 37520 ft | 403 kts | 290° |
| 2026-05-07 21:53 | -37.67029 | 161.68817 | 37521 ft | 404 kts | 290° |
| 2026-05-07 21:54 | -37.65284 | 161.62070 | 37529 ft | 404 kts | 290° |
| 2026-05-07 21:54 | -37.63542 | 161.55342 | 37528 ft | 405 kts | 290° |
| 2026-05-07 21:55 | -37.61796 | 161.48622 | 37523 ft | 404 kts | 290° |
| 2026-05-07 21:55 | -37.60052 | 161.41925 | 37532 ft | 403 kts | 290° |
| 2026-05-07 21:56 | -37.58310 | 161.35245 | 37530 ft | 404 kts | 290° |
| 2026-05-07 21:56 | -37.56545 | 161.28511 | 37537 ft | 404 kts | 290° |
| 2026-05-07 21:57 | -37.54795 | 161.21848 | 37543 ft | 403 kts | 290° |
| 2026-05-07 21:57 | -37.53027 | 161.15122 | 37539 ft | 404 kts | 290° |
| 2026-05-07 21:58 | -37.51276 | 161.08487 | 37547 ft | 403 kts | 290° |
| 2026-05-07 21:58 | -37.49510 | 161.01811 | 37548 ft | 403 kts | 290° |
| 2026-05-07 21:59 | -37.47740 | 160.95143 | 37552 ft | 403 kts | 290° |
| 2026-05-07 21:59 | -37.45992 | 160.88565 | 37568 ft | 403 kts | 290° |
| 2026-05-07 22:00 | -37.44224 | 160.81928 | 37567 ft | 403 kts | 290° |
| 2026-05-07 22:00 | -37.42441 | 160.75259 | 37585 ft | 403 kts | 290° |
| 2026-05-07 22:01 | -37.40660 | 160.68616 | 37583 ft | 403 kts | 290° |
| 2026-05-07 22:01 | -37.38865 | 160.61931 | 37590 ft | 403 kts | 290° |
| 2026-05-07 22:02 | -37.37078 | 160.55298 | 37586 ft | 403 kts | 290° |
| 2026-05-07 22:02 | -37.35284 | 160.48654 | 37576 ft | 405 kts | 290° |
| 2026-05-07 22:03 | -37.33473 | 160.41960 | 37585 ft | 404 kts | 290° |
| 2026-05-07 22:03 | -37.31660 | 160.35283 | 37593 ft | 405 kts | 290° |
| 2026-05-07 22:04 | -37.29849 | 160.28639 | 37600 ft | 404 kts | 290° |
| 2026-05-07 22:04 | -37.28032 | 160.21973 | 37601 ft | 404 kts | 290° |
| 2026-05-07 22:05 | -37.26220 | 160.15337 | 37599 ft | 404 kts | 290° |
| 2026-05-07 22:05 | -37.24402 | 160.08711 | 37615 ft | 404 kts | 290° |
| 2026-05-07 22:06 | -37.22566 | 160.02031 | 37618 ft | 404 kts | 290° |
| 2026-05-07 22:06 | -37.20738 | 159.95396 | 37634 ft | 405 kts | 290° |
| 2026-05-07 22:07 | -37.18898 | 159.88742 | 37651 ft | 406 kts | 290° |
| 2026-05-07 22:07 | -37.17055 | 159.82086 | 37650 ft | 406 kts | 290° |
| 2026-05-07 22:08 | -37.15206 | 159.75423 | 37657 ft | 406 kts | 289° |
| 2026-05-07 22:08 | -37.13355 | 159.68770 | 37662 ft | 406 kts | 290° |
| 2026-05-07 22:09 | -37.11492 | 159.62100 | 37666 ft | 407 kts | 290° |
| 2026-05-07 22:09 | -37.09631 | 159.55441 | 37668 ft | 407 kts | 289° |
| 2026-05-07 22:10 | -37.07750 | 159.48741 | 37673 ft | 406 kts | 289° |
| 2026-05-07 22:10 | -37.05886 | 159.42108 | 37684 ft | 407 kts | 289° |
| 2026-05-07 22:11 | -37.04015 | 159.35469 | 37684 ft | 406 kts | 289° |
| 2026-05-07 22:11 | -37.02145 | 159.28851 | 37692 ft | 406 kts | 289° |
| 2026-05-07 22:12 | -37.00272 | 159.22234 | 37694 ft | 405 kts | 289° |
| 2026-05-07 22:12 | -36.98386 | 159.15584 | 37700 ft | 405 kts | 289° |
| 2026-05-07 22:13 | -36.96500 | 159.08964 | 37700 ft | 405 kts | 289° |
| 2026-05-07 22:13 | -36.94614 | 159.02353 | 37705 ft | 405 kts | 289° |
| 2026-05-07 22:14 | -36.92730 | 158.95767 | 37701 ft | 405 kts | 289° |
| 2026-05-07 22:14 | -36.90834 | 158.89154 | 37707 ft | 404 kts | 289° |
| 2026-05-07 22:15 | -36.88948 | 158.82593 | 37706 ft | 404 kts | 289° |
| 2026-05-07 22:15 | -36.87051 | 158.76001 | 37711 ft | 404 kts | 289° |
| 2026-05-07 22:16 | -36.85159 | 158.69453 | 37712 ft | 404 kts | 289° |
| 2026-05-07 22:16 | -36.83255 | 158.62875 | 37735 ft | 403 kts | 289° |
| 2026-05-07 22:17 | -36.81362 | 158.56351 | 37733 ft | 403 kts | 289° |
| 2026-05-07 22:17 | -36.79449 | 158.49776 | 37742 ft | 403 kts | 289° |
| 2026-05-07 22:18 | -36.76588 | 158.39967 | 37739 ft | 402 kts | 289° |
| 2026-05-07 22:19 | -36.74677 | 158.33431 | 37749 ft | 403 kts | 289° |
| 2026-05-07 22:19 | -36.72756 | 158.26883 | 37747 ft | 402 kts | 289° |
| 2026-05-07 22:20 | -36.70841 | 158.20371 | 37743 ft | 401 kts | 289° |
| 2026-05-07 22:20 | -36.68926 | 158.13867 | 37758 ft | 402 kts | 289° |
| 2026-05-07 22:21 | -36.67004 | 158.07364 | 37758 ft | 401 kts | 289° |
| 2026-05-07 22:21 | -36.65082 | 158.00876 | 37767 ft | 400 kts | 289° |
| 2026-05-07 22:22 | -36.63166 | 157.94414 | 37759 ft | 399 kts | 289° |
| 2026-05-07 22:22 | -36.61253 | 157.87975 | 37761 ft | 397 kts | 289° |
| 2026-05-07 22:23 | -36.59339 | 157.81561 | 37776 ft | 396 kts | 289° |
| 2026-05-07 22:23 | -36.57424 | 157.75154 | 37784 ft | 397 kts | 289° |
| 2026-05-07 22:24 | -36.55512 | 157.68762 | 37785 ft | 396 kts | 288° |
| 2026-05-07 22:24 | -36.53587 | 157.62352 | 37784 ft | 395 kts | 289° |
| 2026-05-07 22:25 | -36.51672 | 157.55983 | 37793 ft | 396 kts | 288° |
| 2026-05-07 22:25 | -36.49754 | 157.49620 | 37791 ft | 396 kts | 289° |
| 2026-05-07 22:26 | -36.47821 | 157.43228 | 37798 ft | 394 kts | 288° |
| 2026-05-07 22:26 | -36.45905 | 157.36899 | 37803 ft | 395 kts | 289° |
| 2026-05-07 22:27 | -36.43983 | 157.30568 | 37805 ft | 394 kts | 289° |
| 2026-05-07 22:27 | -36.42056 | 157.24242 | 37809 ft | 392 kts | 289° |
| 2026-05-07 22:28 | -36.40128 | 157.17914 | 37816 ft | 393 kts | 289° |
| 2026-05-07 22:28 | -36.38199 | 157.11594 | 37819 ft | 391 kts | 289° |
| 2026-05-07 22:29 | -36.36282 | 157.05344 | 37823 ft | 391 kts | 289° |
| 2026-05-07 22:29 | -36.34353 | 156.99054 | 37824 ft | 391 kts | 289° |
| 2026-05-07 22:30 | -36.32418 | 156.92767 | 37830 ft | 391 kts | 289° |
| 2026-05-07 22:30 | -36.30481 | 156.86487 | 37837 ft | 391 kts | 289° |
| 2026-05-07 22:31 | -36.28545 | 156.80215 | 37824 ft | 391 kts | 288° |
| 2026-05-07 22:31 | -36.26604 | 156.73949 | 37827 ft | 391 kts | 289° |
| 2026-05-07 22:32 | -36.24657 | 156.67676 | 37837 ft | 391 kts | 289° |
| 2026-05-07 22:32 | -36.22708 | 156.61408 | 37838 ft | 391 kts | 289° |
| 2026-05-07 22:33 | -36.20759 | 156.55158 | 37842 ft | 390 kts | 289° |
| 2026-05-07 22:33 | -36.18810 | 156.48917 | 37830 ft | 391 kts | 289° |
| 2026-05-07 22:34 | -36.16858 | 156.42677 | 37839 ft | 390 kts | 289° |
| 2026-05-07 22:34 | -36.14901 | 156.36436 | 37844 ft | 391 kts | 289° |
| 2026-05-07 22:35 | -36.12932 | 156.30179 | 37848 ft | 391 kts | 289° |
| 2026-05-07 22:35 | -36.10959 | 156.23918 | 37850 ft | 391 kts | 289° |
| 2026-05-07 22:36 | -36.09000 | 156.17708 | 37853 ft | 392 kts | 289° |
| 2026-05-07 22:36 | -36.07017 | 156.11450 | 37862 ft | 390 kts | 289° |
| 2026-05-07 22:37 | -36.05043 | 156.05225 | 37862 ft | 391 kts | 289° |
| 2026-05-07 22:37 | -36.03057 | 155.98976 | 37865 ft | 391 kts | 289° |
| 2026-05-07 22:38 | -36.01083 | 155.92776 | 37864 ft | 392 kts | 289° |
| 2026-05-07 22:38 | -35.99099 | 155.86552 | 37858 ft | 391 kts | 289° |
| 2026-05-07 22:39 | -35.97107 | 155.80324 | 37866 ft | 392 kts | 289° |
| 2026-05-07 22:39 | -35.95093 | 155.74046 | 37870 ft | 393 kts | 289° |
| 2026-05-07 22:40 | -35.93095 | 155.67819 | 37873 ft | 391 kts | 289° |
| 2026-05-07 22:40 | -35.91094 | 155.61606 | 37876 ft | 391 kts | 289° |
| 2026-05-07 22:41 | -35.89092 | 155.55402 | 37879 ft | 392 kts | 288° |
| 2026-05-07 22:41 | -35.87074 | 155.49162 | 37883 ft | 393 kts | 288° |
| 2026-05-07 22:42 | -35.85061 | 155.42937 | 37888 ft | 393 kts | 289° |
| 2026-05-07 22:42 | -35.83046 | 155.36731 | 37879 ft | 392 kts | 289° |
| 2026-05-07 22:43 | -35.81012 | 155.30479 | 37883 ft | 393 kts | 289° |
| 2026-05-07 22:43 | -35.78986 | 155.24265 | 37885 ft | 393 kts | 289° |
| 2026-05-07 22:44 | -35.76958 | 155.18060 | 37891 ft | 392 kts | 289° |
| 2026-05-07 22:44 | -35.74920 | 155.11830 | 37884 ft | 392 kts | 289° |
| 2026-05-07 22:45 | -35.72888 | 155.05637 | 37876 ft | 391 kts | 289° |
| 2026-05-07 22:45 | -35.70855 | 154.99448 | 37904 ft | 391 kts | 289° |
| 2026-05-07 22:46 | -35.68819 | 154.93275 | 37903 ft | 391 kts | 289° |
| 2026-05-07 22:46 | -35.66784 | 154.87118 | 37912 ft | 390 kts | 289° |
| 2026-05-07 22:47 | -35.64748 | 154.80960 | 37889 ft | 389 kts | 289° |
| 2026-05-07 22:47 | -35.62577 | 154.74876 | 37908 ft | 392 kts | 292° |
| 2026-05-07 22:48 | -35.59920 | 154.68993 | 37914 ft | 396 kts | 297° |
| 2026-05-07 22:48 | -35.56795 | 154.63437 | 37923 ft | 399 kts | 302° |
| 2026-05-07 22:49 | -35.53248 | 154.58191 | 37930 ft | 400 kts | 304° |
| 2026-05-07 22:49 | -35.49639 | 154.53009 | 37908 ft | 402 kts | 304° |
| 2026-05-07 22:50 | -35.46006 | 154.47809 | 37922 ft | 401 kts | 304° |
| 2026-05-07 22:50 | -35.42391 | 154.42656 | 37975 ft | 399 kts | 304° |
| 2026-05-07 22:51 | -35.38798 | 154.37537 | 37920 ft | 398 kts | 304° |
| 2026-05-07 22:51 | -35.35170 | 154.32376 | 37951 ft | 398 kts | 304° |
| 2026-05-07 22:52 | -35.31568 | 154.27261 | 37958 ft | 397 kts | 304° |
| 2026-05-07 22:52 | -35.27987 | 154.22183 | 37949 ft | 397 kts | 304° |
| 2026-05-07 22:53 | -35.24372 | 154.17065 | 37965 ft | 397 kts | 304° |
| 2026-05-07 22:53 | -35.20780 | 154.11990 | 37970 ft | 396 kts | 304° |
| 2026-05-07 22:54 | -35.17196 | 154.06928 | 37971 ft | 395 kts | 304° |
| 2026-05-07 22:54 | -35.13589 | 154.01843 | 37997 ft | 395 kts | 304° |
| 2026-05-07 22:55 | -35.10022 | 153.96823 | 37974 ft | 393 kts | 304° |
| 2026-05-07 22:55 | -35.06431 | 153.91777 | 37963 ft | 393 kts | 304° |
| 2026-05-07 22:56 | -35.02859 | 153.86766 | 37969 ft | 393 kts | 304° |
| 2026-05-07 22:56 | -34.99278 | 153.81749 | 37990 ft | 393 kts | 304° |
| 2026-05-07 22:57 | -34.95685 | 153.76723 | 37953 ft | 392 kts | 304° |
| 2026-05-07 22:57 | -34.92120 | 153.71739 | 37962 ft | 392 kts | 304° |
| 2026-05-07 22:58 | -34.88538 | 153.66740 | 37989 ft | 392 kts | 304° |
| 2026-05-07 22:58 | -34.84963 | 153.61763 | 37993 ft | 391 kts | 304° |
| 2026-05-07 22:59 | -34.81389 | 153.56789 | 37992 ft | 391 kts | 304° |
| 2026-05-07 22:59 | -34.77823 | 153.51836 | 38003 ft | 391 kts | 304° |
| 2026-05-07 23:00 | -34.74229 | 153.46854 | 38002 ft | 392 kts | 304° |
| 2026-05-07 23:00 | -34.70644 | 153.41887 | 38019 ft | 391 kts | 304° |
| 2026-05-07 23:01 | -34.67067 | 153.36940 | 38009 ft | 391 kts | 304° |
| 2026-05-07 23:01 | -34.63475 | 153.31975 | 38019 ft | 390 kts | 304° |
| 2026-05-07 23:02 | -34.59917 | 153.27071 | 38026 ft | 391 kts | 304° |
| 2026-05-07 23:02 | -34.56330 | 153.22130 | 38022 ft | 390 kts | 304° |
| 2026-05-07 23:03 | -34.52757 | 153.17213 | 38026 ft | 390 kts | 304° |
| 2026-05-07 23:03 | -34.49152 | 153.12264 | 38032 ft | 390 kts | 304° |
| 2026-05-07 23:04 | -34.45571 | 153.07352 | 37894 ft | 391 kts | 304° |
| 2026-05-07 23:04 | -34.43791 | 153.04918 | 37649 ft | 389 kts | 304° |
| 2026-05-07 23:04 | -34.41993 | 153.02455 | 37399 ft | 386 kts | 304° |
| 2026-05-07 23:04 | -34.40236 | 153.00060 | 37155 ft | 384 kts | 304° |
| 2026-05-07 23:05 | -34.38464 | 152.97641 | 36900 ft | 381 kts | 304° |
| 2026-05-07 23:05 | -34.36728 | 152.95265 | 36589 ft | 381 kts | 304° |
| 2026-05-07 23:05 | -34.34968 | 152.92865 | 36161 ft | 381 kts | 303° |
| 2026-05-07 23:05 | -34.33226 | 152.90486 | 35589 ft | 382 kts | 303° |
| 2026-05-07 23:06 | -34.31449 | 152.88062 | 34999 ft | 386 kts | 303° |
| 2026-05-07 23:06 | -34.29679 | 152.85646 | 34325 ft | 392 kts | 303° |
| 2026-05-07 23:06 | -34.27870 | 152.83180 | 33498 ft | 397 kts | 303° |
| 2026-05-07 23:06 | -34.26022 | 152.80666 | 32653 ft | 400 kts | 303° |
| 2026-05-07 23:07 | -34.24194 | 152.78175 | 31818 ft | 403 kts | 303° |
| 2026-05-07 23:07 | -34.22334 | 152.75652 | 30988 ft | 405 kts | 303° |
| 2026-05-07 23:07 | -34.20470 | 152.73120 | 30120 ft | 407 kts | 303° |
| 2026-05-07 23:07 | -34.18568 | 152.70541 | 29211 ft | 410 kts | 303° |
| 2026-05-07 23:08 | -34.16695 | 152.68007 | 28531 ft | 406 kts | 303° |
| 2026-05-07 23:08 | -34.14830 | 152.65489 | 27962 ft | 401 kts | 303° |
| 2026-05-07 23:08 | -34.13009 | 152.63032 | 27370 ft | 396 kts | 303° |
| 2026-05-07 23:08 | -34.11179 | 152.60558 | 26778 ft | 392 kts | 303° |
| 2026-05-07 23:09 | -34.09569 | 152.58002 | 26148 ft | 379 kts | 293° |
| 2026-05-07 23:09 | -34.08463 | 152.55193 | 25563 ft | 366 kts | 283° |
| 2026-05-07 23:09 | -34.07842 | 152.52261 | 24980 ft | 356 kts | 273° |
| 2026-05-07 23:09 | -34.07537 | 152.49336 | 24429 ft | 351 kts | 271° |
| 2026-05-07 23:10 | -34.07263 | 152.46445 | 23875 ft | 348 kts | 270° |
| 2026-05-07 23:10 | -34.06995 | 152.43570 | 23317 ft | 346 kts | 270° |
| 2026-05-07 23:10 | -34.06728 | 152.40703 | 22755 ft | 343 kts | 270° |
| 2026-05-07 23:10 | -34.06461 | 152.37862 | 22216 ft | 340 kts | 270° |
| 2026-05-07 23:11 | -34.06199 | 152.35080 | 21692 ft | 338 kts | 270° |
| 2026-05-07 23:11 | -34.05935 | 152.32283 | 21178 ft | 335 kts | 270° |
| 2026-05-07 23:11 | -34.05672 | 152.29512 | 20671 ft | 332 kts | 270° |
| 2026-05-07 23:11 | -34.05409 | 152.26750 | 20144 ft | 330 kts | 270° |
| 2026-05-07 23:12 | -34.05149 | 152.24019 | 19632 ft | 328 kts | 270° |
| 2026-05-07 23:12 | -34.04887 | 152.21317 | 19131 ft | 325 kts | 270° |
| 2026-05-07 23:12 | -34.04633 | 152.18666 | 18638 ft | 323 kts | 270° |
| 2026-05-07 23:12 | -34.04372 | 152.15967 | 18127 ft | 320 kts | 270° |
| 2026-05-07 23:13 | -34.04119 | 152.13330 | 17633 ft | 318 kts | 270° |
| 2026-05-07 23:13 | -34.03865 | 152.10719 | 17129 ft | 316 kts | 271° |
| 2026-05-07 23:13 | -34.03612 | 152.08093 | 16606 ft | 315 kts | 271° |
| 2026-05-07 23:13 | -34.03357 | 152.05481 | 16095 ft | 313 kts | 271° |
| 2026-05-07 23:14 | -34.03102 | 152.02908 | 15583 ft | 312 kts | 271° |
| 2026-05-07 23:14 | -34.02844 | 152.00330 | 15066 ft | 311 kts | 271° |
| 2026-05-07 23:14 | -34.02584 | 151.97734 | 14545 ft | 310 kts | 272° |
| 2026-05-07 23:14 | -34.02326 | 151.95192 | 14028 ft | 309 kts | 271° |
| 2026-05-07 23:15 | -34.02067 | 151.92633 | 13503 ft | 308 kts | 271° |
| 2026-05-07 23:15 | -34.01810 | 151.90093 | 12978 ft | 308 kts | 271° |
| 2026-05-07 23:15 | -34.01546 | 151.87508 | 12444 ft | 307 kts | 271° |
| 2026-05-07 23:15 | -34.01288 | 151.84976 | 11924 ft | 307 kts | 271° |
| 2026-05-07 23:16 | -34.01029 | 151.82433 | 11405 ft | 306 kts | 271° |
| 2026-05-07 23:16 | -34.00770 | 151.79898 | 10891 ft | 306 kts | 271° |
| 2026-05-07 23:16 | -34.00516 | 151.77423 | 10566 ft | 297 kts | 271° |
| 2026-05-07 23:16 | -34.00267 | 151.75020 | 10389 ft | 284 kts | 271° |
| 2026-05-07 23:17 | -34.00027 | 151.72702 | 10211 ft | 272 kts | 271° |
| 2026-05-07 23:17 | -33.99797 | 151.70477 | 10040 ft | 260 kts | 271° |
| 2026-05-07 23:17 | -33.99583 | 151.68416 | 9842 ft | 252 kts | 271° |
| 2026-05-07 23:17 | -33.99371 | 151.66338 | 9455 ft | 253 kts | 271° |
| 2026-05-07 23:18 | -33.99156 | 151.64235 | 9078 ft | 252 kts | 271° |
| 2026-05-07 23:18 | -33.98943 | 151.62155 | 8714 ft | 251 kts | 271° |
| 2026-05-07 23:18 | -33.98724 | 151.60053 | 8353 ft | 250 kts | 271° |
| 2026-05-07 23:18 | -33.98510 | 151.58000 | 8005 ft | 249 kts | 271° |
| 2026-05-07 23:19 | -33.98294 | 151.55899 | 7912 ft | 258 kts | 271° |
| 2026-05-07 23:19 | -33.98069 | 151.53719 | 7936 ft | 261 kts | 271° |
| 2026-05-07 23:19 | -33.97844 | 151.51572 | 7964 ft | 262 kts | 271° |
| 2026-05-07 23:19 | -33.97612 | 151.49373 | 7976 ft | 261 kts | 271° |
| 2026-05-07 23:20 | -33.97386 | 151.47211 | 7981 ft | 262 kts | 271° |
| 2026-05-07 23:20 | -33.97158 | 151.45048 | 7988 ft | 262 kts | 271° |
| 2026-05-07 23:20 | -33.96928 | 151.42853 | 7995 ft | 262 kts | 271° |
| 2026-05-07 23:20 | -33.96785 | 151.40692 | 7985 ft | 257 kts | 260° |
| 2026-05-07 23:21 | -33.97333 | 151.38690 | 7992 ft | 249 kts | 236° |
| 2026-05-07 23:21 | -33.98511 | 151.37212 | 7998 ft | 247 kts | 214° |
| 2026-05-07 23:21 | -34.00092 | 151.36363 | 8005 ft | 249 kts | 201° |
| 2026-05-07 23:21 | -34.01727 | 151.35677 | 7994 ft | 249 kts | 201° |
| 2026-05-07 23:22 | -34.03377 | 151.35033 | 7812 ft | 252 kts | 195° |
| 2026-05-07 23:22 | -34.05129 | 151.34883 | 7389 ft | 256 kts | 180° |
| 2026-05-07 23:22 | -34.06892 | 151.35239 | 7004 ft | 256 kts | 173° |
| 2026-05-07 23:22 | -34.08624 | 151.35698 | 6614 ft | 255 kts | 172° |
| 2026-05-07 23:23 | -34.10351 | 151.36163 | 6232 ft | 252 kts | 172° |
| 2026-05-07 23:23 | -34.12054 | 151.36621 | 5864 ft | 250 kts | 172° |
| 2026-05-07 23:23 | -34.13737 | 151.37070 | 5509 ft | 248 kts | 172° |
| 2026-05-07 23:23 | -34.15424 | 151.37440 | 5145 ft | 242 kts | 182° |
| 2026-05-07 23:24 | -34.17034 | 151.37021 | 4793 ft | 234 kts | 208° |
| 2026-05-07 23:24 | -34.18291 | 151.35806 | 4451 ft | 232 kts | 231° |
| 2026-05-07 23:24 | -34.19000 | 151.34085 | 4109 ft | 234 kts | 253° |
| 2026-05-07 23:24 | -34.19045 | 151.32120 | 3773 ft | 240 kts | 277° |
| 2026-05-07 23:25 | -34.18420 | 151.30269 | 3612 ft | 236 kts | 292° |
| 2026-05-07 23:25 | -34.17770 | 151.28517 | 3502 ft | 219 kts | 281° |
| 2026-05-07 23:25 | -34.17438 | 151.26794 | 3412 ft | 206 kts | 277° |
| 2026-05-07 23:25 | -34.16965 | 151.25186 | 3272 ft | 207 kts | 300° |
| 2026-05-07 23:26 | -34.15794 | 151.24124 | 2993 ft | 221 kts | 335° |
| 2026-05-07 23:26 | -34.14292 | 151.23729 | 2865 ft | 216 kts | 343° |
| 2026-05-07 23:26 | -34.12857 | 151.23415 | 2807 ft | 205 kts | 342° |
| 2026-05-07 23:26 | -34.11460 | 151.23090 | 2694 ft | 202 kts | 341° |
| 2026-05-07 23:27 | -34.08736 | 151.22403 | 2422 ft | 199 kts | 340° |
| 2026-05-07 23:27 | -34.07390 | 151.22057 | 2213 ft | 193 kts | 340° |
| 2026-05-07 23:27 | -34.06088 | 151.21718 | 1881 ft | 192 kts | 340° |
| 2026-05-07 23:28 | -34.04798 | 151.21381 | 1600 ft | 185 kts | 340° |
| 2026-05-07 23:28 | -34.03567 | 151.21063 | 1347 ft | 165 kts | 341° |
| 2026-05-07 23:28 | -34.02494 | 151.20787 | 1102 ft | 150 kts | 341° |
| 2026-05-07 23:28 | -34.01527 | 151.20537 | 890 ft | 134 kts | 341° |
| 2026-05-07 23:29 | -34.00673 | 151.20316 | 713 ft | 121 kts | 341° |
| 2026-05-07 23:29 | -33.99850 | 151.20097 | 587 ft | 121 kts | 342° |
| 2026-05-07 23:29 | -33.99023 | 151.19881 | 392 ft | 119 kts | 341° |
| 2026-05-07 23:29 | -33.98215 | 151.19675 | 283 ft | 119 kts | 341° |
| 2026-05-07 23:30 | -33.97408 | 151.19470 | 137 ft | 119 kts | 343° |
| 2026-05-07 23:30 | -33.96658 | 151.19269 | 13 ft | 109 kts | 344° |
| 2026-05-07 23:30 | -33.96040 | 151.19107 | 9 ft | 88 kts | 349° |
| 2026-05-07 23:30 | -33.95596 | 151.18996 | 12 ft | 57 kts | 345° |
| 2026-05-07 23:31 | -33.95379 | 151.18909 | 12 ft | 15 kts | 331° |
| 2026-05-07 23:31 | -33.95310 | 151.18855 | 12 ft | 13 kts | 325° |
| 2026-05-07 23:31 | -33.95246 | 151.18800 | 14 ft | 11 kts | 322° |
| 2026-05-07 23:31 | -33.95189 | 151.18741 | 14 ft | 11 kts | 319° |
| 2026-05-07 23:32 | -33.95135 | 151.18684 | 15 ft | 11 kts | 318° |
| 2026-05-07 23:32 | -33.95092 | 151.18614 | 15 ft | 11 kts | 282° |
| 2026-05-07 23:32 | -33.95100 | 151.18526 | 16 ft | 11 kts | 259° |
| 2026-05-07 23:32 | -33.95116 | 151.18436 | 16 ft | 11 kts | 255° |
| 2026-05-07 23:33 | -33.95135 | 151.18343 | 17 ft | 12 kts | 257° |
| 2026-05-07 23:33 | -33.95151 | 151.18251 | 18 ft | 10 kts | 260° |
| 2026-05-07 23:33 | -33.95162 | 151.18179 | 19 ft | 9 kts | 259° |
| 2026-05-07 23:33 | -33.95175 | 151.18103 | 18 ft | 10 kts | 258° |
| 2026-05-07 23:34 | -33.95187 | 151.18018 | 19 ft | 11 kts | 274° |
| 2026-05-07 23:34 | -33.95138 | 151.17956 | 19 ft | 11 kts | 343° |
| 2026-05-07 23:34 | -33.95068 | 151.17935 | 21 ft | 10 kts | 348° |
| 2026-05-07 23:34 | -33.95001 | 151.17918 | 23 ft | 12 kts | 347° |
| 2026-05-07 23:35 | -33.94909 | 151.17894 | 25 ft | 15 kts | 349° |
| 2026-05-07 23:35 | -33.94806 | 151.17870 | 26 ft | 16 kts | 348° |
| 2026-05-07 23:35 | -33.94689 | 151.17839 | 25 ft | 18 kts | 347° |
| 2026-05-07 23:35 | -33.94577 | 151.17809 | 25 ft | 15 kts | 348° |
| 2026-05-07 23:36 | -33.94487 | 151.17786 | 25 ft | 14 kts | 346° |
| 2026-05-07 23:36 | -33.94390 | 151.17755 | 22 ft | 17 kts | 345° |
| 2026-05-07 23:36 | -33.94284 | 151.17722 | 19 ft | 14 kts | 345° |
| 2026-05-07 23:36 | -33.94222 | 151.17703 | 17 ft | 7 kts | 345° |
| 2026-05-07 23:37 | -33.94213 | 151.17700 | 17 ft | 0 kts | 345° |
| 2026-05-07 23:37 | -33.94204 | 151.17697 | 17 ft | 2 kts | 346° |
| 2026-05-07 23:37 | -33.94175 | 151.17690 | 16 ft | 6 kts | 346° |
| 2026-05-07 23:38 | -33.94123 | 151.17674 | 14 ft | 10 kts | 345° |
| 2026-05-07 23:38 | -33.94049 | 151.17650 | 11 ft | 13 kts | 345° |
| 2026-05-07 23:38 | -33.93955 | 151.17624 | 9 ft | 15 kts | 346° |
| 2026-05-07 23:38 | -33.93902 | 151.17564 | 9 ft | 3 kts | 277° |
| 2026-05-07 23:39 | -33.93902 | 151.17541 | 9 ft | 2 kts | 263° |
| 2026-05-07 23:39 | -33.93905 | 151.17520 | 10 ft | 3 kts | 261° |
| 2026-05-07 23:39 | -33.93912 | 151.17476 | 11 ft | 8 kts | 256° |
| 2026-05-07 23:39 | -33.93929 | 151.17404 | 13 ft | 11 kts | 252° |
| 2026-05-07 23:40 | -33.93954 | 151.17305 | 16 ft | 14 kts | 256° |
| 2026-05-07 23:40 | -33.93933 | 151.17221 | 18 ft | 12 kts | 330° |
| 2026-05-07 23:40 | -33.93856 | 151.17194 | 18 ft | 13 kts | 348° |
| 2026-05-07 23:40 | -33.93770 | 151.17172 | 18 ft | 13 kts | 348° |
| 2026-05-07 23:41 | -33.93715 | 151.17116 | 21 ft | 9 kts | 278° |
| 2026-05-07 23:41 | -33.93712 | 151.17053 | 23 ft | 6 kts | 270° |
| 2026-05-07 23:41 | -33.93718 | 151.17009 | 25 ft | 4 kts | 256° |
| 2026-05-07 23:41 | -33.93724 | 151.16978 | 26 ft | 3 kts | 256° |
| 2026-05-07 23:42 | -33.93730 | 151.16951 | 26 ft | 2 kts | 255° |
| 2026-05-07 23:42 | -33.93734 | 151.16936 | 27 ft | 0 kts | 253° |